^^
Saratoga-Weather Station Historical Data
Daily Summary for August 4, 2021 Units:  English    Metric   Both
Daily Weekly Monthly Yearly Custom
  High: Low: Average:
Temperature: 46.8 °F 41.4 °F 43.7 °F
Dew Point: 43.5 °F 39.7 °F 41.5 °F
Humidity: 95% 87% 92%
Wind Speed: 13mph 0mph 4mph
Wind Gust: 14mph - -
Wind- - West
Pressure: 30 in 29.6 in -
Precipitation: 0.03 in    
Historical Graphs
 
 
Tabular Data for August 4, 2021
Time Temperature Dew Point Pressure Wind Wind Speed Wind Gust Humidity Rainfall Rate (Hourly) solar
00:02 42.4 °F 40.3 °F 29.6 in WNW 2.9 mph 7 mph 92% 0 in 0 W/m2
00:07 42.4 °F 40.3 °F 29.6 in WNW 6.9 mph 8 mph 92% 0 in 0 W/m2
00:12 42.4 °F 40.3 °F 29.6 in West 4 mph 12 mph 92% 0 in 0 W/m2
00:17 42.6 °F 40.1 °F 29.6 in WSW 4 mph 8 mph 91% 0 in 0 W/m2
00:22 42.4 °F 39.9 °F 29.6 in WSW 4 mph 12 mph 91% 0 in 0 W/m2
00:27 42.4 °F 39.9 °F 29.6 in West 4 mph 8 mph 91% 0 in 0 W/m2
00:32 42.4 °F 39.9 °F 29.6 in West 6 mph 12 mph 91% 0 in 0 W/m2
00:37 42.4 °F 40.3 °F 29.6 in West 2.9 mph 8 mph 92% 0 in 0 W/m2
00:42 42.4 °F 40.3 °F 29.6 in NW 8.1 mph 10 mph 92% 0 in 0 W/m2
00:47 42.4 °F 40.3 °F 29.6 in WNW 4.9 mph 6 mph 92% 0.01 in 0 W/m2
00:52 42.4 °F 40.3 °F 29.6 in WNW 2.9 mph 7 mph 92% 0.01 in 0 W/m2
00:57 42.3 °F 40.1 °F 29.6 in WNW 6 mph 8 mph 92% 0.02 in 0 W/m2
01:02 42.3 °F 40.5 °F 29.6 in West 6 mph 10 mph 93% 0.02 in 0 W/m2
01:07 42.3 °F 40.5 °F 29.6 in NW 2.9 mph 6 mph 93% 0.02 in 0 W/m2
01:12 42.4 °F 40.6 °F 29.6 in WNW 4 mph 6 mph 93% 0.02 in 0 W/m2
01:17 42.3 °F 40.5 °F 29.6 in West 2.9 mph 6 mph 93% 0.02 in 0 W/m2
01:22 42.3 °F 40.5 °F 29.6 in WNW 2.9 mph 6 mph 93% 0.02 in 0 W/m2
01:27 42.4 °F 40.6 °F 29.6 in WNW 2 mph 7 mph 93% 0.02 in 0 W/m2
01:32 42.4 °F 40.6 °F 29.6 in WSW 4.9 mph 6 mph 93% 0.02 in 0 W/m2
01:37 42.4 °F 40.6 °F 29.6 in WNW 2.9 mph 7 mph 93% 0.02 in 0 W/m2
01:42 42.4 °F 40.6 °F 29.6 in WSW 2.9 mph 6 mph 93% 0.02 in 0 W/m2
01:47 42.4 °F 40.6 °F 29.6 in West 2 mph 7 mph 93% 0.01 in 0 W/m2
01:52 42.4 °F 40.6 °F 29.6 in NW 2.9 mph 8 mph 93% 0.01 in 0 W/m2
01:57 42.4 °F 40.6 °F 29.6 in WSW 2.9 mph 7 mph 93% 0 in 0 W/m2
02:02 42.4 °F 40.6 °F 29.6 in WNW 2 mph 8 mph 93% 0 in 0 W/m2
02:07 42.4 °F 40.6 °F 29.6 in WNW 2 mph 7 mph 93% 0.01 in 0 W/m2
02:12 42.6 °F 40.8 °F 29.6 in WNW 4 mph 9 mph 93% 0.01 in 0 W/m2
02:17 42.6 °F 40.5 °F 29.6 in WNW 2 mph 9 mph 92% 0.01 in 0 W/m2
02:22 42.6 °F 40.5 °F 29.6 in West 2.9 mph 6 mph 92% 0.01 in 0 W/m2
02:27 42.6 °F 40.5 °F 29.6 in WNW 2.9 mph 6 mph 92% 0.01 in 0 W/m2
02:32 42.6 °F 40.5 °F 29.6 in WNW 2 mph 7 mph 92% 0.01 in 0 W/m2
02:37 42.6 °F 40.5 °F 29.6 in NW 4 mph 10 mph 92% 0.01 in 0 W/m2
02:42 42.6 °F 40.5 °F 29.6 in West 4 mph 5 mph 92% 0.01 in 0 W/m2
02:47 42.6 °F 40.5 °F 29.6 in WSW 2.9 mph 4 mph 92% 0.01 in 0 W/m2
02:52 42.6 °F 40.5 °F 29.6 in WNW 2.9 mph 10 mph 92% 0.01 in 0 W/m2
02:57 42.6 °F 40.5 °F 29.6 in West 6 mph 9 mph 92% 0.01 in 0 W/m2
03:02 42.6 °F 40.5 °F 29.6 in West 2.9 mph 8 mph 92% 0.01 in 0 W/m2
03:07 42.6 °F 40.5 °F 29.6 in WNW 6.9 mph 9 mph 92% 0 in 0 W/m2
03:12 42.6 °F 40.5 °F 29.6 in West 6 mph 9 mph 92% 0 in 0 W/m2
03:17 42.8 °F 40.6 °F 29.6 in West 2.9 mph 11 mph 92% 0 in 0 W/m2
03:22 42.8 °F 40.6 °F 29.6 in WNW 4 mph 9 mph 92% 0 in 0 W/m2
03:27 42.8 °F 40.6 °F 29.6 in WSW 6.9 mph 11 mph 92% 0 in 0 W/m2
03:32 42.6 °F 40.5 °F 29.6 in WSW 2.9 mph 9 mph 92% 0 in 0 W/m2
03:37 42.6 °F 40.5 °F 29.6 in WNW 8.9 mph 9 mph 92% 0 in 0 W/m2
03:42 42.6 °F 40.5 °F 29.6 in WNW 4.9 mph 8 mph 92% 0 in 0 W/m2
03:47 42.6 °F 40.5 °F 29.6 in West 8.9 mph 11 mph 92% 0 in 0 W/m2
03:53 42.6 °F 40.5 °F 29.6 in SW 10.1 mph 13 mph 92% 0 in 0 W/m2
03:58 42.8 °F 40.6 °F 29.6 in West 6 mph 10 mph 92% 0 in 0 W/m2
04:03 42.8 °F 40.6 °F 29.6 in NW 8.1 mph 10 mph 92% 0 in 0 W/m2
04:08 43 °F 40.8 °F 29.6 in WSW 11 mph 11 mph 92% 0 in 0 W/m2
04:13 42.8 °F 40.6 °F 29.6 in WNW 6.9 mph 10 mph 92% 0 in 0 W/m2
04:18 42.6 °F 40.5 °F 29.6 in West 6.9 mph 12 mph 92% 0 in 0 W/m2
04:23 42.6 °F 40.5 °F 29.6 in West 6 mph 11 mph 92% 0 in 0 W/m2
04:28 42.4 °F 40.3 °F 29.6 in West 6.9 mph 12 mph 92% 0 in 0 W/m2
04:33 42.3 °F 40.1 °F 29.6 in West 8.9 mph 12 mph 92% 0 in 0 W/m2
04:38 42.3 °F 40.1 °F 29.6 in WNW 6.9 mph 9 mph 92% 0 in 0 W/m2
04:43 42.3 °F 40.5 °F 29.6 in WSW 4 mph 12 mph 93% 0 in 0 W/m2
04:48 42.3 °F 40.1 °F 29.6 in NW 4.9 mph 8 mph 92% 0 in 0 W/m2
04:53 42.1 °F 40.3 °F 29.6 in SW 6.9 mph 10 mph 93% 0 in 0 W/m2
04:58 42.1 °F 40.3 °F 29.6 in West 6 mph 13 mph 93% 0 in 0 W/m2
05:03 42.1 °F 40.3 °F 29.6 in West 6.9 mph 12 mph 93% 0 in 0 W/m2
05:08 42.1 °F 40.3 °F 29.6 in West 8.9 mph 10 mph 93% 0 in 0 W/m2
05:13 42.1 °F 40.3 °F 29.6 in NW 4 mph 9 mph 93% 0 in 0 W/m2
05:18 42.3 °F 40.5 °F 29.6 in WNW 4.9 mph 10 mph 93% 0 in 0 W/m2
05:23 42.3 °F 40.5 °F 29.6 in West 6.9 mph 10 mph 93% 0 in 0 W/m2
05:28 42.3 °F 40.5 °F 29.6 in West 6.9 mph 11 mph 93% 0 in 0 W/m2
05:33 42.4 °F 40.6 °F 29.6 in West 8.9 mph 11 mph 93% 0 in 0 W/m2
05:38 42.4 °F 40.6 °F 29.6 in WNW 6.9 mph 9 mph 93% 0 in 0 W/m2
05:43 42.4 °F 40.6 °F 29.6 in WNW 2.9 mph 12 mph 93% 0 in 0 W/m2
05:48 42.4 °F 40.6 °F 29.6 in WSW 8.1 mph 10 mph 93% 0 in 0 W/m2
05:53 42.4 °F 40.6 °F 29.6 in WSW 6.9 mph 12 mph 93% 0 in 0 W/m2
05:58 42.3 °F 40.5 °F 29.6 in WSW 4 mph 9 mph 93% 0 in 0 W/m2
06:03 42.3 °F 40.5 °F 29.6 in West 8.9 mph 9 mph 93% 0 in 0 W/m2
06:08 42.1 °F 40.3 °F 29.6 in West 6 mph 9 mph 93% 0 in 0 W/m2
06:13 42.1 °F 40.3 °F 29.6 in West 6 mph 9 mph 93% 0 in 0 W/m2
06:18 42.1 °F 40.3 °F 29.6 in West 6 mph 12 mph 93% 0 in 0 W/m2
06:23 42.1 °F 40.3 °F 29.6 in NW 4.9 mph 11 mph 93% 0 in 0 W/m2
06:28 42.1 °F 40.3 °F 29.7 in WNW 6.9 mph 12 mph 93% 0 in 0 W/m2
06:33 42.1 °F 40.3 °F 29.7 in WNW 4 mph 9 mph 93% 0 in 0 W/m2
06:38 41.7 °F 39.9 °F 29.7 in WNW 8.1 mph 12 mph 93% 0 in 0 W/m2
06:43 41.7 °F 39.9 °F 29.7 in NW 4 mph 10 mph 93% 0 in 0 W/m2
06:48 41.5 °F 39.7 °F 29.7 in WSW 8.1 mph 11 mph 93% 0 in 0 W/m2
06:53 41.5 °F 39.9 °F 29.7 in WSW 4 mph 12 mph 94% 0 in 0 W/m2
06:58 41.7 °F 39.9 °F 29.7 in West 6 mph 12 mph 93% 0 in 0 W/m2
07:03 41.7 °F 39.9 °F 29.7 in West 6 mph 11 mph 93% 0 in 0 W/m2
07:08 41.7 °F 39.9 °F 29.7 in WNW 4 mph 11 mph 93% 0 in 0 W/m2
07:13 41.7 °F 39.9 °F 29.7 in WSW 10.1 mph 10 mph 93% 0 in 0 W/m2
07:18 41.7 °F 39.9 °F 29.7 in West 8.1 mph 12 mph 93% 0 in 0 W/m2
07:23 41.5 °F 39.7 °F 29.7 in WNW 10.1 mph 10 mph 93% 0 in 0 W/m2
07:28 41.5 °F 39.7 °F 29.7 in West 8.9 mph 9 mph 93% 0 in 0 W/m2
07:33 41.5 °F 39.9 °F 29.7 in WSW 4 mph 9 mph 94% 0 in 0 W/m2
07:38 41.4 °F 39.7 °F 29.7 in WSW 4.9 mph 9 mph 94% 0 in 0 W/m2
07:43 41.5 °F 39.9 °F 29.7 in West 8.1 mph 9 mph 94% 0 in 5 W/m2
07:48 41.5 °F 39.9 °F 29.7 in West 2.9 mph 8 mph 94% 0 in 5 W/m2
07:53 41.5 °F 39.9 °F 29.7 in WSW 2.9 mph 8 mph 94% 0 in 5 W/m2
07:58 41.5 °F 39.9 °F 29.7 in WSW 4.9 mph 7 mph 94% 0 in 7 W/m2
08:03 41.7 °F 40.1 °F 29.7 in NW 6.9 mph 9 mph 94% 0 in 7 W/m2
08:08 41.7 °F 40.1 °F 29.7 in West 2.9 mph 7 mph 94% 0 in 12 W/m2
08:13 41.7 °F 40.1 °F 29.7 in WNW 2.9 mph 8 mph 94% 0 in 16 W/m2
08:19 41.7 °F 40.1 °F 29.7 in NNW 4.9 mph 6 mph 94% 0 in 11 W/m2
08:24 41.7 °F 40.1 °F 29.7 in WSW 2.9 mph 6 mph 94% 0 in 12 W/m2
08:29 41.7 °F 40.1 °F 29.7 in WSW 8.9 mph 9 mph 94% 0 in 18 W/m2
08:34 41.7 °F 40.1 °F 29.7 in WSW 4.9 mph 9 mph 94% 0 in 49 W/m2
08:39 41.7 °F 40.1 °F 29.7 in West 4 mph 6 mph 94% 0 in 47 W/m2
08:44 41.9 °F 40.3 °F 29.7 in West 2 mph 9 mph 94% 0 in 51 W/m2
08:49 42.1 °F 40.5 °F 29.7 in West 2.9 mph 7 mph 94% 0 in 47 W/m2
08:54 42.3 °F 40.6 °F 29.7 in WNW 2.9 mph 7 mph 94% 0 in 42 W/m2
08:59 42.3 °F 40.6 °F 29.7 in NW 2.9 mph 6 mph 94% 0 in 58 W/m2
09:04 42.3 °F 40.6 °F 29.7 in WNW 4 mph 8 mph 94% 0 in 21 W/m2
09:10 42.3 °F 40.6 °F 29.7 in WNW 4.9 mph 10 mph 94% 0 in 21 W/m2
09:15 42.3 °F 40.6 °F 29.7 in West 4 mph 7 mph 94% 0 in 28 W/m2
09:20 42.3 °F 40.5 °F 29.7 in NW 8.1 mph 10 mph 93% 0 in 37 W/m2
09:25 42.3 °F 40.5 °F 29.7 in WNW 2 mph 4 mph 93% 0 in 25 W/m2
09:30 42.3 °F 40.5 °F 29.7 in WNW 6.9 mph 10 mph 93% 0 in 23 W/m2
09:35 42.3 °F 40.5 °F 29.7 in West 2.9 mph 7 mph 93% 0 in 32 W/m2
09:40 42.4 °F 40.6 °F 29.7 in WNW 4.9 mph 9 mph 93% 0 in 42 W/m2
09:45 42.4 °F 40.6 °F 29.7 in West 6 mph 8 mph 93% 0 in 44 W/m2
09:50 42.4 °F 40.6 °F 29.7 in WSW 6.9 mph 10 mph 93% 0 in 84 W/m2
09:55 42.6 °F 40.8 °F 29.7 in WSW 6.9 mph 8 mph 93% 0 in 65 W/m2
10:00 42.8 °F 41 °F 29.7 in WSW 4.9 mph 10 mph 93% 0 in 125 W/m2
10:05 43.2 °F 41.4 °F 29.7 in WNW 4.9 mph 8 mph 93% 0 in 156 W/m2
10:10 43.3 °F 41.5 °F 29.7 in WSW 4.9 mph 9 mph 93% 0 in 165 W/m2
10:15 43.5 °F 41.7 °F 29.7 in NW 4 mph 9 mph 93% 0 in 155 W/m2
10:20 43.5 °F 41.4 °F 29.7 in WSW 6.9 mph 11 mph 92% 0 in 153 W/m2
10:25 43.5 °F 41.4 °F 29.7 in WNW 6.9 mph 10 mph 92% 0 in 169 W/m2
10:34 44.1 °F 41.7 °F 29.7 in West 7.5 mph 9 mph 92% 0 in 163 W/m2
10:42 44.2 °F 41.7 °F 29.7 in WNW 6 mph 6 mph 91% 0 in 165 W/m2
10:47 44.4 °F 42.3 °F 29.7 in NW 2.9 mph 9 mph 92% 0 in 176 W/m2
10:52 44.4 °F 41.9 °F 29.7 in WNW 2 mph 10 mph 91% 0 in 178 W/m2
10:57 44.4 °F 41.9 °F 29.8 in West 4 mph 10 mph 91% 0 in 163 W/m2
11:02 44.8 °F 42.3 °F 29.8 in West 4 mph 7 mph 91% 0 in 162 W/m2
11:07 44.8 °F 42.3 °F 29.8 in WNW 4 mph 9 mph 91% 0 in 158 W/m2
11:12 44.6 °F 41.9 °F 29.8 in West 10.1 mph 14 mph 90% 0 in 153 W/m2
11:17 44.6 °F 42.1 °F 29.8 in West 6 mph 10 mph 91% 0 in 149 W/m2
11:22 44.8 °F 42.1 °F 29.8 in West 6 mph 10 mph 90% 0 in 158 W/m2
11:27 44.8 °F 42.3 °F 29.8 in WSW 13 mph 13 mph 91% 0 in 153 W/m2
11:32 44.8 °F 42.1 °F 29.8 in West 6 mph 9 mph 90% 0 in 155 W/m2
11:37 45 °F 42.4 °F 29.8 in West 6 mph 13 mph 91% 0 in 139 W/m2
11:42 45 °F 42.3 °F 29.8 in West 2.9 mph 13 mph 90% 0 in 120 W/m2
11:47 45 °F 42.4 °F 29.8 in WSW 4 mph 7 mph 91% 0 in 132 W/m2
11:52 45 °F 42.4 °F 29.8 in WNW 4.9 mph 13 mph 91% 0 in 105 W/m2
11:57 45 °F 42.4 °F 29.8 in WSW 4 mph 6 mph 91% 0 in 137 W/m2
12:02 44.8 °F 42.3 °F 29.8 in West 4 mph 10 mph 91% 0 in 132 W/m2
12:07 44.8 °F 42.3 °F 29.8 in West 2.9 mph 8 mph 91% 0 in 102 W/m2
12:12 44.8 °F 42.3 °F 29.8 in WNW 4.9 mph 13 mph 91% 0 in 116 W/m2
12:17 44.8 °F 42.3 °F 29.8 in NW 2.9 mph 8 mph 91% 0 in 111 W/m2
12:22 45 °F 42.4 °F 29.8 in West 4 mph 13 mph 91% 0 in 120 W/m2
12:27 45 °F 42.4 °F 29.8 in West 4 mph 9 mph 91% 0 in 120 W/m2
12:32 44.8 °F 42.3 °F 29.8 in WNW 4.9 mph 10 mph 91% 0 in 111 W/m2
12:37 44.8 °F 42.3 °F 29.8 in WNW 4.9 mph 9 mph 91% 0 in 98 W/m2
12:42 44.8 °F 42.3 °F 29.8 in West 4 mph 10 mph 91% 0 in 134 W/m2
12:47 44.8 °F 42.3 °F 29.8 in West 8.1 mph 10 mph 91% 0 in 104 W/m2
12:52 44.8 °F 42.3 °F 29.8 in West 6.9 mph 9 mph 91% 0 in 113 W/m2
12:57 44.8 °F 42.3 °F 29.8 in West 4 mph 10 mph 91% 0 in 120 W/m2
13:02 45 °F 42.8 °F 29.8 in WNW 4 mph 8 mph 92% 0 in 105 W/m2
13:07 45 °F 42.8 °F 29.8 in WNW 4 mph 10 mph 92% 0 in 109 W/m2
13:12 45 °F 42.4 °F 29.8 in NW 6 mph 9 mph 91% 0 in 93 W/m2
13:17 45.1 °F 42.6 °F 29.8 in NW 0.9 mph 7 mph 91% 0 in 74 W/m2
13:22 45.1 °F 42.6 °F 29.8 in WNW 4 mph 7 mph 91% 0 in 63 W/m2
13:27 45.1 °F 42.6 °F 29.8 in West 4 mph 10 mph 91% 0 in 70 W/m2
13:32 45.1 °F 42.6 °F 29.8 in WNW 4.9 mph 6 mph 91% 0 in 98 W/m2
13:37 45.3 °F 42.8 °F 29.8 in WNW 4.9 mph 9 mph 91% 0 in 111 W/m2
13:42 45.7 °F 43 °F 29.8 in NW 2 mph 7 mph 90% 0 in 111 W/m2
13:47 45.9 °F 43.2 °F 29.8 in West 2 mph 6 mph 90% 0 in 156 W/m2
13:52 46 °F 43.3 °F 29.8 in WSW 6.9 mph 8 mph 90% 0 in 179 W/m2
13:57 46.2 °F 43.5 °F 29.8 in SSW 2 mph 7 mph 90% 0 in 91 W/m2
14:02 46.2 °F 43.2 °F 29.8 in West 4 mph 8 mph 89% 0 in 84 W/m2
14:07 46.4 °F 43.3 °F 29.8 in SW 6 mph 8 mph 89% 0 in 148 W/m2
14:12 46.6 °F 43.5 °F 29.8 in WSW 10.1 mph 10 mph 89% 0 in 107 W/m2
14:17 46.6 °F 43.2 °F 29.8 in West 2 mph 7 mph 88% 0 in 130 W/m2
14:22 46.6 °F 43.2 °F 29.8 in WNW 6.9 mph 9 mph 88% 0 in 111 W/m2
14:27 46.6 °F 43.2 °F 29.8 in WSW 4 mph 8 mph 88% 0 in 88 W/m2
14:32 46.6 °F 43.2 °F 29.8 in West 2 mph 8 mph 88% 0 in 113 W/m2
14:37 46.6 °F 43.2 °F 29.8 in WNW 4 mph 4 mph 88% 0 in 98 W/m2
14:42 46.6 °F 43.2 °F 29.8 in NNW 0.9 mph 7 mph 88% 0 in 111 W/m2
14:47 46.6 °F 43 °F 29.8 in WNW 2.9 mph 4 mph 87% 0 in 60 W/m2
14:52 46.6 °F 43.2 °F 29.8 in NW 2 mph 4 mph 88% 0 in 58 W/m2
14:57 46.6 °F 43.2 °F 29.8 in West 2 mph 5 mph 88% 0 in 100 W/m2
15:02 46.6 °F 43.2 °F 29.8 in WSW 2.9 mph 7 mph 88% 0 in 120 W/m2
15:07 46.6 °F 43.2 °F 29.8 in West 4 mph 8 mph 88% 0 in 109 W/m2
15:12 46.6 °F 43.2 °F 29.8 in WSW 2 mph 7 mph 88% 0 in 70 W/m2
15:17 46.8 °F 43.3 °F 29.8 in NNW 2.9 mph 8 mph 88% 0 in 63 W/m2
15:22 46.6 °F 43.2 °F 29.8 in West 6 mph 8 mph 88% 0 in 63 W/m2
15:27 46.4 °F 42.8 °F 29.8 in NW 2 mph 4 mph 87% 0 in 81 W/m2
15:33 46.2 °F 42.6 °F 29.8 in NW 4 mph 10 mph 87% 0 in 98 W/m2
15:38 46 °F 42.4 °F 29.8 in SW 2.9 mph 5 mph 87% 0 in 98 W/m2
15:43 46 °F 42.4 °F 29.8 in NW 2 mph 4 mph 87% 0 in 47 W/m2
15:48 46 °F 42.4 °F 29.8 in WNW 2 mph 4 mph 87% 0 in 53 W/m2
15:53 45.9 °F 42.3 °F 29.8 in West 6 mph 6 mph 87% 0 in 30 W/m2
15:58 45.9 °F 42.3 °F 29.8 in West 4 mph 8 mph 87% 0 in 28 W/m2
16:03 45.7 °F 42.3 °F 29.8 in West 2.9 mph 10 mph 88% 0 in 19 W/m2
16:08 45.5 °F 42.1 °F 29.8 in NW 2 mph 7 mph 88% 0 in 21 W/m2
16:13 45.3 °F 41.9 °F 29.8 in West 6.9 mph 8 mph 88% 0 in 14 W/m2
16:18 45.3 °F 42.3 °F 29.8 in WNW 2.9 mph 10 mph 89% 0 in 9 W/m2
16:23 45.1 °F 42.1 °F 29.8 in NW 2.9 mph 6 mph 89% 0 in 9 W/m2
16:28 45 °F 42.3 °F 29.8 in WNW 2 mph 8 mph 90% 0 in 7 W/m2
16:33 45 °F 42.3 °F 29.8 in West 4 mph 7 mph 90% 0 in 7 W/m2
16:38 44.8 °F 42.1 °F 29.8 in West 2 mph 10 mph 90% 0 in 5 W/m2
16:43 44.6 °F 41.9 °F 29.8 in West 2 mph 7 mph 90% 0 in 0 W/m2
16:48 44.4 °F 41.7 °F 29.8 in WNW 2 mph 10 mph 90% 0 in 0 W/m2
16:53 44.4 °F 41.7 °F 29.8 in NNW 2.9 mph 8 mph 90% 0 in 0 W/m2
16:58 44.2 °F 41.5 °F 29.8 in WNW 2.9 mph 9 mph 90% 0 in 0 W/m2
17:03 44.2 °F 41.5 °F 29.8 in WNW 4 mph 6 mph 90% 0 in 0 W/m2
17:08 44.2 °F 41.7 °F 29.8 in West 4 mph 7 mph 91% 0 in 0 W/m2
17:13 44.1 °F 41.5 °F 29.8 in WSW 0.9 mph 4 mph 91% 0 in 0 W/m2
17:18 44.1 °F 41.5 °F 29.8 in West 2.9 mph 6 mph 91% 0 in 0 W/m2
17:23 44.1 °F 41.9 °F 29.9 in WSW 0.9 mph 4 mph 92% 0 in 0 W/m2
17:28 43.9 °F 41.7 °F 29.9 in NW 2.9 mph 4 mph 92% 0 in 0 W/m2
17:33 43.9 °F 41.7 °F 29.9 in West 0.9 mph 7 mph 92% 0 in 0 W/m2
17:38 43.9 °F 41.7 °F 29.9 in West 4 mph 6 mph 92% 0 in 0 W/m2
17:43 43.9 °F 41.9 °F 29.9 in WNW 4.9 mph 7 mph 93% 0 in 0 W/m2
17:48 43.7 °F 41.7 °F 29.9 in Calm   6 mph 93% 0 in 0 W/m2
17:53 43.9 °F 41.9 °F 29.9 in West 0.9 mph 5 mph 93% 0 in 0 W/m2
17:58 43.9 °F 41.9 °F 29.9 in West 2 mph 5 mph 93% 0 in 0 W/m2
18:03 43.7 °F 41.7 °F 29.9 in WNW 2.9 mph 3 mph 93% 0 in 0 W/m2
18:08 43.7 °F 41.7 °F 29.9 in West 2 mph 5 mph 93% 0 in 0 W/m2
18:13 43.9 °F 41.9 °F 29.9 in West 2.9 mph 3 mph 93% 0 in 0 W/m2
18:18 43.9 °F 41.9 °F 29.9 in Calm   3 mph 93% 0 in 0 W/m2
18:23 43.9 °F 42.3 °F 29.9 in Calm   3 mph 94% 0 in 0 W/m2
18:28 43.9 °F 42.3 °F 29.9 in NE 2 mph 3 mph 94% 0 in 0 W/m2
18:33 43.9 °F 42.3 °F 29.9 in WSW 0.9 mph 3 mph 94% 0 in 0 W/m2
18:38 43.9 °F 42.3 °F 29.9 in West 2 mph 4 mph 94% 0 in 0 W/m2
18:43 44.1 °F 42.4 °F 29.9 in NW 2 mph 6 mph 94% 0 in 0 W/m2
18:48 44.1 °F 42.4 °F 29.9 in Calm   2 mph 94% 0 in 0 W/m2
18:53 44.1 °F 42.4 °F 29.9 in WNW 2 mph 2 mph 94% 0 in 0 W/m2
18:58 44.1 °F 42.4 °F 29.9 in WSW 0.9 mph 2 mph 94% 0 in 0 W/m2
19:03 44.1 °F 42.4 °F 29.9 in Calm     94% 0 in 0 W/m2
19:08 44.1 °F 42.4 °F 29.9 in Calm   1 mph 94% 0 in 0 W/m2
19:13 44.1 °F 42.4 °F 29.9 in NW 2.9 mph 4 mph 94% 0 in 0 W/m2
19:18 44.1 °F 42.4 °F 29.9 in WNW 2 mph 4 mph 94% 0 in 0 W/m2
19:23 44.2 °F 42.6 °F 29.9 in West 4 mph 4 mph 94% 0 in 0 W/m2
19:28 44.1 °F 42.4 °F 29.9 in WNW 2 mph 4 mph 94% 0 in 0 W/m2
19:33 44.2 °F 42.6 °F 29.9 in NW 2 mph 2 mph 94% 0 in 0 W/m2
19:38 44.2 °F 42.6 °F 29.9 in Calm   1 mph 94% 0 in 0 W/m2
19:43 44.2 °F 42.6 °F 29.9 in North 2.9 mph 3 mph 94% 0 in 0 W/m2
19:48 44.2 °F 42.6 °F 29.9 in WNW 2 mph 3 mph 94% 0 in 0 W/m2
19:53 44.2 °F 42.6 °F 29.9 in ENE 0.9 mph 1 mph 94% 0 in 0 W/m2
19:58 44.2 °F 42.6 °F 29.9 in WNW 0.9 mph 3 mph 94% 0 in 0 W/m2
20:03 44.2 °F 42.6 °F 29.9 in Calm   1 mph 94% 0 in 0 W/m2
20:08 44.2 °F 42.6 °F 29.9 in Calm   4 mph 94% 0 in 0 W/m2
20:13 44.2 °F 42.6 °F 29.9 in Calm   4 mph 94% 0 in 0 W/m2
20:18 44.4 °F 42.8 °F 29.9 in WNW 2 mph 5 mph 94% 0 in 0 W/m2
20:23 44.4 °F 42.8 °F 29.9 in Calm   3 mph 94% 0 in 0 W/m2
20:28 44.4 °F 42.8 °F 29.9 in WNW 2.9 mph 10 mph 94% 0 in 0 W/m2
20:33 44.4 °F 42.8 °F 29.9 in West 4 mph 5 mph 94% 0 in 0 W/m2
20:38 44.4 °F 42.8 °F 29.9 in West 2 mph 4 mph 94% 0 in 0 W/m2
20:43 44.4 °F 42.8 °F 29.9 in WNW 2 mph 8 mph 94% 0 in 0 W/m2
20:48 44.4 °F 42.8 °F 29.9 in WNW 2 mph 4 mph 94% 0 in 0 W/m2
20:53 44.4 °F 42.8 °F 29.9 in WNW 2.9 mph 4 mph 94% 0 in 0 W/m2
20:58 44.4 °F 42.8 °F 29.9 in WSW 4 mph 4 mph 94% 0 in 0 W/m2
21:03 44.4 °F 42.8 °F 29.9 in WNW 2.9 mph 5 mph 94% 0 in 0 W/m2
21:08 44.4 °F 42.8 °F 29.9 in WNW 0.9 mph 3 mph 94% 0 in 0 W/m2
21:13 44.4 °F 42.8 °F 29.9 in NW 2.9 mph 6 mph 94% 0 in 0 W/m2
21:18 44.4 °F 42.8 °F 29.9 in SW 2 mph 6 mph 94% 0 in 0 W/m2
21:23 44.4 °F 42.8 °F 29.9 in WNW 2 mph 5 mph 94% 0 in 0 W/m2
21:28 44.4 °F 42.8 °F 29.9 in West 0.9 mph 5 mph 94% 0 in 0 W/m2
21:33 44.4 °F 42.8 °F 29.9 in West 2 mph 4 mph 94% 0 in 0 W/m2
21:38 44.6 °F 43 °F 29.9 in SW 2 mph 6 mph 94% 0 in 0 W/m2
21:43 44.4 °F 42.8 °F 29.9 in West 2 mph 2 mph 94% 0 in 0 W/m2
21:48 44.4 °F 42.8 °F 29.9 in WNW 2.9 mph 6 mph 94% 0 in 0 W/m2
21:53 44.4 °F 42.8 °F 29.9 in West 0.9 mph 5 mph 94% 0 in 0 W/m2
21:58 44.4 °F 42.8 °F 29.9 in NW 2 mph 7 mph 94% 0 in 0 W/m2
22:03 44.4 °F 42.8 °F 29.9 in West 2 mph 4 mph 94% 0 in 0 W/m2
22:08 44.4 °F 42.8 °F 29.9 in WNW 2 mph 7 mph 94% 0 in 0 W/m2
22:13 44.4 °F 42.8 °F 29.9 in WNW 2 mph 6 mph 94% 0 in 0 W/m2
22:18 44.4 °F 42.8 °F 29.9 in West 2 mph 6 mph 94% 0 in 0 W/m2
22:23 44.4 °F 42.8 °F 29.9 in WNW 2.9 mph 5 mph 94% 0 in 0 W/m2
22:28 44.4 °F 42.8 °F 29.9 in WSW 0.9 mph 4 mph 94% 0 in 0 W/m2
22:33 44.4 °F 42.8 °F 29.9 in WNW 2.9 mph 7 mph 94% 0 in 0 W/m2
22:38 44.4 °F 42.8 °F 29.9 in WNW 2 mph 4 mph 94% 0 in 0 W/m2
22:43 44.4 °F 42.8 °F 29.9 in WNW 2 mph 5 mph 94% 0 in 0 W/m2
22:48 44.6 °F 43 °F 29.9 in WSW 4 mph 7 mph 94% 0 in 0 W/m2
22:53 44.6 °F 43 °F 29.9 in WNW 2 mph 7 mph 94% 0 in 0 W/m2
22:58 44.6 °F 43 °F 29.9 in West 2.9 mph 5 mph 94% 0 in 0 W/m2
23:03 44.4 °F 42.8 °F 29.9 in WSW 4 mph 9 mph 94% 0.01 in 0 W/m2
23:08 44.4 °F 42.8 °F 29.9 in WNW 0.9 mph 6 mph 94% 0.01 in 0 W/m2
23:13 44.4 °F 42.8 °F 29.9 in WNW 2 mph 6 mph 94% 0.01 in 0 W/m2
23:18 44.4 °F 42.8 °F 29.9 in West 2 mph 5 mph 94% 0.01 in 0 W/m2
23:23 44.4 °F 42.8 °F 29.9 in West 4 mph 8 mph 94% 0.01 in 0 W/m2
23:28 44.4 °F 43.2 °F 29.9 in WNW 2.9 mph 8 mph 95% 0.01 in 0 W/m2
23:33 44.6 °F 43.3 °F 29.9 in WNW 0.9 mph 7 mph 95% 0.01 in 0 W/m2
23:38 44.6 °F 43.3 °F 29.9 in West 0.9 mph 5 mph 95% 0.01 in 0 W/m2
23:43 44.6 °F 43.3 °F 29.9 in West 2 mph 7 mph 95% 0.01 in 0 W/m2
23:48 44.6 °F 43.3 °F 29.9 in Calm   5 mph 95% 0.01 in 0 W/m2
23:54 44.6 °F 43.3 °F 29.9 in West 2 mph 6 mph 95% 0.01 in 0 W/m2
23:59 44.6 °F 43.3 °F 30 in West 2.9 mph 3 mph 95% 0.01 in 0 W/m2
Juneau County Weather
Compliments of Weather Underground - 4 mb